createdAt,value
2018-06-08T00:01:37.836Z,92.40
2018-06-08T00:04:06.891Z,92.50
2018-06-08T00:06:35.843Z,92.50
2018-06-08T00:09:08.037Z,92.90
2018-06-08T00:11:36.975Z,92.30
2018-06-08T00:14:06.357Z,92.40
2018-06-08T00:16:35.387Z,92.40
2018-06-08T00:19:04.709Z,92.40
2018-06-08T00:21:33.797Z,92.30
2018-06-08T00:24:02.673Z,92.30
2018-06-08T00:28:59.991Z,92.20
2018-06-08T00:31:29.764Z,92.20
2018-06-08T00:33:58.869Z,92.40
2018-06-08T00:36:27.707Z,92.40
2018-06-08T00:38:56.622Z,92.10
2018-06-08T00:41:25.368Z,92.10
2018-06-08T00:43:54.177Z,92.10
2018-06-08T00:46:23.119Z,92.30
2018-06-08T00:48:51.983Z,92.40
2018-06-08T00:51:20.734Z,92.30
2018-06-08T00:53:50.880Z,92.30
2018-06-08T00:56:30.966Z,92.10
2018-06-08T00:58:59.917Z,92.30
2018-06-08T01:01:32.759Z,92.30
2018-06-08T01:04:01.612Z,92.20
2018-06-08T01:09:00.321Z,91.90
2018-06-08T01:11:29.896Z,92.00
2018-06-08T01:13:58.883Z,91.90
2018-06-08T01:16:28.285Z,91.90
2018-06-08T01:18:57.254Z,91.70
2018-06-08T01:21:27.146Z,91.70
2018-06-08T01:23:56.172Z,91.70
2018-06-08T01:26:30.577Z,91.80
2018-06-08T01:29:00.353Z,92.00
2018-06-08T01:36:26.180Z,91.60
2018-06-08T01:41:23.433Z,91.80
2018-06-08T01:43:52.162Z,91.90
2018-06-08T01:48:49.357Z,92.40
2018-06-08T01:51:18.161Z,92.40
2018-06-08T01:53:46.933Z,92.50
2018-06-08T01:56:15.862Z,92.40
2018-06-08T01:58:44.660Z,92.20
2018-06-08T02:01:15.398Z,92.20
2018-06-08T02:03:44.222Z,92.30
2018-06-08T02:06:12.934Z,92.30
2018-06-08T02:08:41.690Z,92.10
2018-06-08T02:11:10.641Z,92.20
2018-06-08T02:13:39.579Z,92.30
2018-06-08T02:16:08.289Z,92.40
2018-06-08T02:18:37.152Z,92.50
2018-06-08T02:21:07.203Z,92.60
2018-06-08T02:23:36.001Z,92.50
2018-06-08T02:26:04.753Z,92.70
2018-06-08T02:28:33.796Z,92.80
2018-06-08T02:31:02.699Z,92.60
2018-06-08T02:36:00.821Z,92.50
2018-06-08T02:38:30.135Z,92.70
2018-06-08T02:40:58.946Z,92.50
2018-06-08T02:43:27.749Z,92.50
2018-06-08T02:48:25.028Z,92.60
2018-06-08T02:50:53.922Z,92.50
2018-06-08T02:53:22.845Z,92.50
2018-06-08T02:55:51.580Z,92.60
2018-06-08T02:58:20.372Z,92.70
2018-06-08T03:00:49.196Z,92.70
2018-06-08T03:03:18.001Z,92.80
2018-06-08T03:05:46.886Z,92.80
2018-06-08T03:08:15.636Z,92.50
2018-06-08T03:10:44.471Z,92.70
2018-06-08T03:13:13.244Z,92.50
2018-06-08T03:15:42.047Z,92.50
2018-06-08T03:18:10.894Z,92.50
2018-06-08T03:20:39.583Z,92.50
2018-06-08T03:23:08.415Z,92.40
2018-06-08T03:28:06.001Z,92.30
2018-06-08T03:30:34.761Z,92.10
2018-06-08T03:33:05.061Z,92.10
2018-06-08T03:35:34.133Z,92.10
2018-06-08T03:38:07.729Z,92.20
2018-06-08T03:40:36.437Z,92.40
2018-06-08T03:43:05.677Z,92.30
2018-06-08T03:45:34.483Z,92.30
2018-06-08T03:48:05.621Z,92.20
2018-06-08T03:50:34.490Z,92.20
2018-06-08T03:55:33.482Z,92.50
2018-06-08T03:58:04.296Z,92.30
2018-06-08T04:00:33.041Z,92.40
2018-06-08T04:03:03.214Z,92.00
2018-06-08T04:05:34.478Z,92.00
2018-06-08T04:08:05.875Z,91.80
2018-06-08T04:10:34.985Z,91.80
2018-06-08T04:13:06.694Z,91.70
2018-06-08T04:15:35.474Z,91.60
2018-06-08T04:18:04.429Z,91.70
2018-06-08T04:20:33.280Z,91.60
2018-06-08T04:23:02.119Z,91.40
2018-06-08T04:25:30.948Z,91.50
2018-06-08T04:27:59.765Z,91.50
2018-06-08T04:30:28.789Z,91.30
2018-06-08T04:32:57.558Z,91.50
2018-06-08T04:35:26.435Z,91.50
2018-06-08T04:37:55.310Z,91.10
2018-06-08T04:40:24.173Z,90.90
2018-06-08T04:42:53.147Z,90.90
2018-06-08T04:45:21.928Z,90.90
2018-06-08T04:47:50.742Z,90.90
2018-06-08T04:50:19.564Z,90.80
2018-06-08T04:52:48.387Z,90.90
2018-06-08T04:55:17.172Z,90.50
2018-06-08T04:57:46.961Z,90.70
2018-06-08T05:00:15.868Z,90.40
2018-06-08T05:02:44.682Z,90.70
2018-06-08T05:05:13.553Z,90.70
2018-06-08T05:07:42.389Z,90.50
2018-06-08T05:10:11.471Z,90.40
2018-06-08T05:12:40.554Z,90.20
2018-06-08T05:15:09.590Z,90.10
2018-06-08T05:17:38.638Z,90.00
2018-06-08T05:20:07.736Z,90.00
2018-06-08T05:22:36.982Z,90.20
2018-06-08T05:25:06.259Z,89.90
2018-06-08T05:27:35.341Z,89.70
2018-06-08T05:30:08.991Z,88.40
2018-06-08T05:32:38.745Z,88.30
2018-06-08T05:35:07.831Z,88.70
2018-06-08T05:37:36.739Z,87.90
2018-06-08T05:40:07.390Z,87.40
2018-06-08T05:42:36.168Z,86.00
2018-06-08T05:45:07.321Z,86.30
2018-06-08T05:47:36.690Z,87.00
2018-06-08T05:50:06.118Z,87.30
2018-06-08T05:52:35.074Z,87.70
2018-06-08T05:55:05.337Z,87.10
2018-06-08T05:57:34.423Z,87.30
2018-06-08T06:00:03.686Z,87.00
2018-06-08T06:02:32.729Z,87.10
2018-06-08T06:05:01.572Z,86.80
2018-06-08T06:07:30.311Z,87.10
2018-06-08T06:09:59.413Z,87.40
2018-06-08T06:12:30.826Z,86.90
2018-06-08T06:14:59.805Z,85.90
2018-06-08T06:17:28.822Z,87.10
2018-06-08T06:19:57.740Z,87.50
2018-06-08T06:22:28.431Z,87.80
2018-06-08T06:24:57.206Z,88.60
2018-06-08T06:27:26.008Z,88.80
2018-06-08T06:29:54.892Z,88.30
2018-06-08T06:32:23.954Z,88.50
2018-06-08T06:34:53.203Z,87.40
2018-06-08T06:37:22.518Z,86.90
2018-06-08T06:39:51.409Z,87.10
2018-06-08T06:42:20.376Z,87.30
2018-06-08T06:44:49.704Z,87.20
2018-06-08T06:47:18.944Z,86.40
2018-06-08T06:49:47.741Z,87.00
2018-06-08T06:52:16.599Z,87.00
2018-06-08T06:54:45.423Z,87.10
2018-06-08T06:57:14.367Z,86.90
2018-06-08T06:59:43.344Z,85.20
2018-06-08T07:02:12.242Z,82.10
2018-06-08T07:04:41.547Z,82.40
2018-06-08T07:07:10.455Z,81.90
2018-06-08T07:09:39.451Z,82.10
2018-06-08T07:12:09.256Z,81.90
2018-06-08T07:14:38.316Z,80.20
2018-06-08T07:17:10.860Z,79.80
2018-06-08T07:19:45.804Z,79.90
2018-06-08T07:22:15.649Z,78.50
2018-06-08T07:24:45.103Z,78.40
2018-06-08T07:27:13.984Z,78.50
2018-06-08T07:29:42.829Z,77.50
2018-06-08T07:32:11.847Z,75.90
2018-06-08T07:34:40.768Z,75.90
2018-06-08T07:37:09.652Z,73.70
2018-06-08T07:39:38.488Z,72.80
2018-06-08T07:42:07.950Z,72.90
2018-06-08T07:44:37.244Z,71.60
2018-06-08T07:47:09.715Z,70.10
2018-06-08T07:49:38.662Z,69.50
2018-06-08T07:52:08.269Z,67.70
2018-06-08T07:54:37.560Z,66.70
2018-06-08T07:57:10.861Z,66.00
2018-06-08T07:59:39.968Z,62.90
2018-06-08T08:02:09.280Z,63.80
2018-06-08T08:04:38.145Z,62.50
2018-06-08T08:07:07.355Z,63.10
2018-06-08T08:09:36.355Z,62.50
2018-06-08T08:12:05.941Z,65.20
2018-06-08T08:14:35.044Z,63.10
2018-06-08T08:17:05.802Z,63.50
2018-06-08T08:19:35.034Z,64.10
2018-06-08T08:22:05.718Z,63.20
2018-06-08T08:24:34.847Z,62.30
2018-06-08T08:27:06.052Z,62.50
2018-06-08T08:29:35.246Z,62.60
2018-06-08T08:32:06.098Z,59.80
2018-06-08T08:34:35.179Z,57.70
2018-06-08T08:37:06.502Z,57.50
2018-06-08T08:39:35.440Z,57.70
2018-06-08T08:42:04.724Z,56.90
2018-06-08T08:44:33.848Z,55.60
2018-06-08T08:47:02.914Z,56.90
2018-06-08T08:49:31.850Z,51.70
2018-06-08T08:52:00.845Z,51.30
2018-06-08T08:54:29.705Z,50.70
2018-06-08T08:56:58.738Z,52.60
2018-06-08T08:59:27.772Z,53.40
2018-06-08T09:01:56.783Z,54.60
2018-06-08T09:04:25.813Z,52.50
2018-06-08T09:06:54.873Z,51.50
2018-06-08T09:09:23.761Z,54.30
2018-06-08T09:11:52.841Z,56.00
2018-06-08T09:14:21.769Z,57.40
2018-06-08T09:16:50.968Z,58.70
2018-06-08T09:19:19.964Z,60.60
2018-06-08T09:21:48.940Z,59.30
2018-06-08T09:24:17.937Z,59.50
2018-06-08T09:26:47.211Z,59.90
2018-06-08T09:29:16.239Z,58.90
2018-06-08T09:31:45.378Z,58.30
2018-06-08T09:34:14.499Z,59.60
2018-06-08T09:36:43.393Z,61.10
2018-06-08T09:39:12.481Z,60.20
2018-06-08T09:41:41.468Z,61.70
2018-06-08T09:44:11.000Z,57.50
2018-06-08T09:46:39.998Z,54.50
2018-06-08T09:49:08.974Z,52.40
2018-06-08T09:51:38.794Z,50.50
2018-06-08T09:54:08.020Z,49.70
2018-06-08T09:56:37.797Z,47.80
2018-06-08T09:59:07.410Z,47.50
2018-06-08T10:01:37.043Z,45.70
2018-06-08T10:04:06.464Z,47.50
2018-06-08T10:06:35.303Z,47.40
2018-06-08T10:09:06.307Z,49.90
2018-06-08T10:11:35.756Z,50.20
2018-06-08T10:14:05.578Z,50.00
2018-06-08T10:16:34.706Z,48.90
2018-06-08T10:19:04.586Z,49.50
2018-06-08T10:21:33.682Z,44.80
2018-06-08T10:24:02.918Z,43.30
2018-06-08T10:26:31.838Z,43.10
2018-06-08T10:29:01.825Z,45.40
2018-06-08T10:31:30.845Z,46.40
2018-06-08T10:33:59.669Z,44.20
2018-06-08T10:36:28.625Z,45.40
2018-06-08T10:38:57.541Z,45.40
2018-06-08T10:41:26.543Z,43.70
2018-06-08T10:43:55.428Z,42.60
2018-06-08T10:46:24.606Z,41.50
2018-06-08T10:48:53.974Z,42.70
2018-06-08T10:51:22.941Z,43.70
2018-06-08T10:53:51.841Z,43.40
2018-06-08T10:56:20.727Z,43.60
2018-06-08T10:58:49.756Z,43.50
2018-06-08T11:01:18.866Z,42.40
2018-06-08T11:03:47.625Z,42.00
2018-06-08T11:06:16.785Z,46.00
2018-06-08T11:08:45.891Z,45.60
2018-06-08T11:11:14.945Z,46.00
2018-06-08T11:13:44.073Z,45.90
2018-06-08T11:16:18.428Z,44.40
2018-06-08T11:18:47.376Z,45.70
2018-06-08T11:21:16.680Z,47.40
2018-06-08T11:23:45.876Z,48.90
2018-06-08T11:26:14.919Z,49.90
2018-06-08T11:28:44.260Z,52.40
2018-06-08T11:31:13.363Z,51.10
2018-06-08T11:33:42.639Z,52.90
2018-06-08T11:36:11.740Z,52.90
2018-06-08T11:38:41.165Z,52.10
2018-06-08T11:41:10.321Z,52.40
2018-06-08T11:43:39.551Z,52.10
2018-06-08T11:46:08.600Z,52.40
2018-06-08T11:48:37.627Z,53.60
2018-06-08T11:51:07.100Z,55.10
2018-06-08T11:53:36.329Z,54.80
2018-06-08T11:56:05.600Z,54.40
2018-06-08T11:58:34.524Z,54.10
2018-06-08T12:01:03.557Z,54.00
2018-06-08T12:03:33.687Z,53.60
2018-06-08T12:06:02.798Z,53.50
2018-06-08T12:08:31.928Z,53.90
2018-06-08T12:11:05.357Z,53.70
2018-06-08T12:13:34.555Z,53.40
2018-06-08T12:16:03.637Z,53.60
2018-06-08T12:18:32.775Z,52.80
2018-06-08T12:21:02.156Z,52.90
2018-06-08T12:23:31.342Z,53.80
2018-06-08T12:26:00.430Z,52.80
2018-06-08T12:28:29.533Z,51.70
2018-06-08T12:30:58.836Z,53.10
2018-06-08T12:33:28.145Z,52.50
2018-06-08T12:35:57.211Z,52.10
2018-06-08T12:38:28.116Z,51.90
2018-06-08T12:40:57.472Z,52.10
2018-06-08T12:43:26.371Z,52.00
2018-06-08T12:45:55.666Z,52.30
2018-06-08T12:48:24.645Z,52.20
2018-06-08T12:50:53.869Z,52.10
2018-06-08T12:53:22.735Z,51.70
2018-06-08T12:55:51.926Z,52.20
2018-06-08T12:58:21.027Z,52.60
2018-06-08T13:00:50.116Z,52.80
2018-06-08T13:03:19.015Z,53.20
2018-06-08T13:05:48.032Z,51.60
2018-06-08T13:08:17.529Z,52.00
2018-06-08T13:10:53.887Z,52.30
2018-06-08T13:13:24.032Z,51.20
2018-06-08T13:15:53.281Z,51.60
2018-06-08T13:18:22.185Z,52.20
2018-06-08T13:20:51.589Z,52.70
2018-06-08T13:23:20.600Z,51.30
2018-06-08T13:25:49.934Z,50.20
2018-06-08T13:28:18.990Z,50.50
2018-06-08T13:30:48.406Z,50.90
2018-06-08T13:33:17.306Z,51.40
2018-06-08T13:35:46.204Z,51.70
2018-06-08T13:38:15.558Z,51.00
2018-06-08T13:40:48.298Z,49.80
2018-06-08T13:43:17.451Z,50.20
2018-06-08T13:45:46.761Z,50.30
2018-06-08T13:48:16.150Z,51.70
2018-06-08T13:50:45.390Z,52.10
2018-06-08T13:53:14.895Z,52.80
2018-06-08T13:55:44.047Z,52.50
2018-06-08T13:58:13.075Z,52.50
2018-06-08T14:00:42.010Z,53.20
2018-06-08T14:03:11.077Z,53.60
2018-06-08T14:05:40.058Z,53.50
2018-06-08T14:08:09.114Z,54.00
2018-06-08T14:10:38.021Z,52.60
2018-06-08T14:13:07.319Z,50.20
2018-06-08T14:15:36.495Z,51.10
2018-06-08T14:18:05.613Z,52.30
2018-06-08T14:20:34.650Z,51.80
2018-06-08T14:23:03.733Z,50.90
2018-06-08T14:25:37.672Z,50.20
2018-06-08T14:28:06.636Z,52.20
2018-06-08T14:30:36.012Z,52.50
2018-06-08T14:33:06.181Z,51.70
2018-06-08T14:35:35.232Z,52.10
2018-06-08T14:38:04.388Z,52.60
2018-06-08T14:40:33.302Z,53.40
2018-06-08T14:43:03.379Z,52.70
2018-06-08T14:45:33.457Z,52.20
2018-06-08T14:48:02.715Z,52.00
2018-06-08T14:50:31.964Z,50.30
2018-06-08T14:53:00.851Z,51.30
2018-06-08T14:55:30.082Z,50.60
2018-06-08T14:57:59.260Z,50.80
2018-06-08T15:00:28.215Z,52.30
2018-06-08T15:02:57.204Z,51.60
2018-06-08T15:05:26.339Z,51.60
2018-06-08T15:07:55.298Z,50.30
2018-06-08T15:10:24.337Z,50.70
2018-06-08T15:12:53.396Z,51.20
2018-06-08T15:15:22.697Z,50.80
2018-06-08T15:17:51.797Z,50.20
2018-06-08T15:20:20.966Z,49.70
2018-06-08T15:22:50.062Z,51.00
2018-06-08T15:25:19.160Z,50.80
2018-06-08T15:27:47.987Z,52.20
2018-06-08T15:30:17.165Z,51.50
2018-06-08T15:32:46.104Z,52.20
2018-06-08T15:35:15.052Z,51.10
2018-06-08T15:37:44.248Z,51.00
2018-06-08T15:40:13.279Z,51.50
2018-06-08T15:42:42.368Z,52.60
2018-06-08T15:45:11.422Z,54.10
2018-06-08T15:47:42.407Z,54.30
2018-06-08T15:50:11.674Z,53.70
2018-06-08T15:52:40.861Z,55.60
2018-06-08T15:55:09.862Z,56.80
2018-06-08T15:57:39.001Z,55.40
2018-06-08T16:00:07.941Z,52.80
2018-06-08T16:02:36.845Z,52.70
2018-06-08T16:05:07.281Z,53.00
2018-06-08T16:07:36.249Z,53.70
2018-06-08T16:10:05.763Z,54.40
2018-06-08T16:12:34.847Z,54.80
2018-06-08T16:15:03.918Z,56.20
2018-06-08T16:17:33.474Z,58.10
2018-06-08T16:20:02.459Z,59.80
2018-06-08T16:22:31.776Z,59.70
2018-06-08T16:25:01.148Z,59.20
2018-06-08T16:27:30.274Z,59.60
2018-06-08T16:29:59.492Z,60.20
2018-06-08T16:32:29.058Z,60.30
2018-06-08T16:34:58.195Z,59.90
2018-06-08T16:37:27.330Z,59.60
2018-06-08T16:39:56.384Z,60.20
2018-06-08T16:42:25.441Z,61.10
2018-06-08T16:44:54.491Z,60.50
2018-06-08T16:47:23.710Z,60.90
2018-06-08T16:49:52.634Z,61.40
2018-06-08T16:52:21.874Z,61.40
2018-06-08T16:54:50.884Z,61.70
2018-06-08T16:57:20.203Z,61.70
2018-06-08T16:59:49.302Z,61.70
2018-06-08T17:02:18.332Z,61.10
2018-06-08T17:04:48.017Z,60.30
2018-06-08T17:07:16.895Z,60.00
2018-06-08T17:09:46.403Z,58.80
2018-06-08T17:12:15.523Z,58.90
2018-06-08T17:14:45.500Z,58.90
2018-06-08T17:17:14.592Z,59.70
2018-06-08T17:19:43.608Z,59.90
2018-06-08T17:22:12.605Z,60.50
2018-06-08T17:24:41.485Z,60.40
2018-06-08T17:27:10.775Z,60.60
2018-06-08T17:29:39.588Z,60.80
2018-06-08T17:32:08.687Z,60.20
2018-06-08T17:34:38.698Z,60.10
2018-06-08T17:37:07.556Z,58.40
2018-06-08T17:39:47.543Z,58.90
2018-06-08T17:42:17.909Z,58.60
2018-06-08T17:44:47.006Z,58.70
2018-06-08T17:47:15.893Z,58.50
2018-06-08T17:49:45.059Z,58.90
2018-06-08T17:52:14.406Z,59.60
2018-06-08T17:54:43.308Z,59.60
2018-06-08T17:57:12.179Z,60.20
2018-06-08T17:59:41.058Z,60.60
2018-06-08T18:02:10.234Z,61.40
2018-06-08T18:04:39.389Z,62.20
2018-06-08T18:07:09.162Z,62.20
2018-06-08T18:09:38.324Z,61.80
2018-06-08T18:12:07.798Z,61.70
2018-06-08T18:14:37.449Z,62.10
2018-06-08T18:17:06.440Z,61.40
2018-06-08T18:19:36.451Z,62.00
2018-06-08T18:22:05.945Z,62.60
2018-06-08T18:24:34.826Z,63.00
2018-06-08T18:27:03.883Z,63.00
2018-06-08T18:29:32.737Z,63.40
2018-06-08T18:32:01.934Z,63.80
2018-06-08T18:34:31.371Z,64.40
2018-06-08T18:37:00.328Z,64.20
2018-06-08T18:39:29.692Z,64.40
2018-06-08T18:41:58.537Z,65.00
2018-06-08T18:44:27.470Z,65.30
2018-06-08T18:46:56.386Z,65.00
2018-06-08T18:49:25.319Z,64.60
2018-06-08T18:51:54.554Z,64.80
2018-06-08T18:54:23.484Z,65.40
2018-06-08T18:56:52.658Z,65.40
2018-06-08T18:59:21.469Z,65.70
2018-06-08T19:01:50.381Z,66.60
2018-06-08T19:04:19.454Z,66.80
2018-06-08T19:06:50.786Z,66.20
2018-06-08T19:09:21.512Z,67.50
2018-06-08T19:11:50.914Z,68.00
2018-06-08T19:14:19.919Z,68.00
2018-06-08T19:16:49.346Z,68.50
2018-06-08T19:19:18.251Z,68.60
2018-06-08T19:21:50.334Z,69.30
2018-06-08T19:24:22.000Z,69.40
2018-06-08T19:26:51.069Z,69.60
2018-06-08T19:29:20.102Z,70.40
2018-06-08T19:31:48.940Z,71.00
2018-06-08T19:34:17.837Z,70.80
2018-06-08T19:36:46.839Z,71.90
2018-06-08T19:39:15.796Z,71.80
2018-06-08T19:41:44.904Z,72.30
2018-06-08T19:44:13.813Z,72.60
2018-06-08T19:46:42.761Z,73.20
2018-06-08T19:49:11.967Z,73.70
2018-06-08T19:52:11.670Z,74.10
2018-06-08T19:54:41.646Z,74.70
2018-06-08T19:57:13.275Z,75.20
2018-06-08T19:59:42.170Z,75.50
2018-06-08T20:02:11.071Z,76.00
2018-06-08T20:04:40.175Z,76.10
2018-06-08T20:07:09.121Z,76.20
2018-06-08T20:09:38.322Z,77.10
2018-06-08T20:12:07.393Z,76.70
2018-06-08T20:14:36.265Z,76.60
2018-06-08T20:17:05.300Z,76.20
2018-06-08T20:19:34.332Z,76.50
2018-06-08T20:22:03.504Z,76.70
2018-06-08T20:24:32.621Z,76.70
2018-06-08T20:27:01.953Z,76.50
2018-06-08T20:29:30.793Z,76.10
2018-06-08T20:31:59.568Z,76.40
2018-06-08T20:34:28.940Z,76.70
2018-06-08T20:36:57.799Z,76.90
2018-06-08T20:39:26.852Z,76.40
2018-06-08T20:41:55.838Z,76.80
2018-06-08T20:44:24.629Z,77.50
2018-06-08T20:46:53.617Z,78.00
2018-06-08T20:49:22.353Z,78.20
2018-06-08T20:51:51.460Z,78.50
2018-06-08T20:54:20.333Z,78.80
2018-06-08T20:57:59.765Z,78.40
2018-06-08T21:00:28.629Z,78.40
2018-06-08T21:02:57.526Z,78.80
2018-06-08T21:05:28.380Z,79.00
2018-06-08T21:07:57.327Z,78.60
2018-06-08T21:10:26.254Z,78.90
2018-06-08T21:12:55.287Z,78.80
2018-06-08T21:15:24.275Z,78.60
2018-06-08T21:17:53.523Z,78.60
2018-06-08T21:20:22.818Z,77.60
2018-06-08T21:22:51.630Z,77.70
2018-06-08T21:25:20.606Z,77.20
2018-06-08T21:27:50.631Z,77.20
2018-06-08T21:30:19.964Z,76.90
2018-06-08T21:32:48.974Z,76.40
2018-06-08T21:35:18.324Z,76.70
2018-06-08T21:37:48.400Z,76.70
2018-06-08T21:40:17.427Z,76.60
2018-06-08T21:42:46.589Z,76.60
2018-06-08T21:45:15.577Z,76.80
2018-06-08T21:47:44.666Z,76.10
2018-06-08T21:50:17.896Z,76.30
2018-06-08T21:52:46.771Z,75.90
2018-06-08T21:55:16.823Z,76.10
2018-06-08T21:57:45.662Z,76.10
2018-06-08T22:00:17.082Z,76.40
2018-06-08T22:02:46.225Z,76.40
2018-06-08T22:05:16.844Z,76.40
2018-06-08T22:07:45.727Z,76.00
2018-06-08T22:10:15.017Z,76.20
2018-06-08T22:12:44.200Z,76.20
2018-06-08T22:15:18.531Z,76.80
2018-06-08T22:17:47.727Z,76.90
2018-06-08T22:20:16.782Z,77.40
2018-06-08T22:22:46.002Z,77.10
2018-06-08T22:25:14.903Z,77.30
2018-06-08T22:27:43.748Z,77.10
2018-06-08T22:30:12.860Z,77.00
2018-06-08T22:32:41.757Z,77.10
2018-06-08T22:35:10.547Z,77.30
2018-06-08T22:37:39.322Z,77.40
2018-06-08T22:40:09.100Z,77.10
2018-06-08T22:42:38.236Z,77.70
2018-06-08T22:45:07.669Z,77.50
2018-06-08T22:47:36.540Z,77.80
2018-06-08T22:50:07.622Z,77.70
2018-06-08T22:52:36.551Z,77.20
2018-06-08T22:55:09.155Z,77.80
2018-06-08T22:57:38.174Z,77.30
2018-06-08T23:00:07.326Z,77.10
2018-06-08T23:02:36.138Z,77.60
2018-06-08T23:05:05.219Z,76.80
2018-06-08T23:07:34.088Z,76.50
2018-06-08T23:10:02.800Z,77.30
2018-06-08T23:12:31.891Z,77.30
2018-06-08T23:15:00.665Z,76.90
2018-06-08T23:17:29.487Z,77.10
2018-06-08T23:20:00.061Z,76.80
2018-06-08T23:22:29.048Z,77.30
2018-06-08T23:24:57.952Z,77.40
2018-06-08T23:27:26.673Z,76.90
2018-06-08T23:29:55.532Z,77.10
2018-06-08T23:32:24.290Z,77.30
2018-06-08T23:34:54.439Z,77.30
2018-06-08T23:37:23.502Z,77.40
2018-06-08T23:39:52.249Z,77.30
2018-06-08T23:42:21.120Z,77.50
2018-06-08T23:44:49.828Z,77.60
2018-06-08T23:47:18.818Z,77.90
2018-06-08T23:52:16.181Z,78.40
2018-06-08T23:54:45.028Z,78.00
2018-06-08T23:57:13.870Z,78.50
2018-06-08T23:59:42.733Z,78.20
